createdAt,value
2019-02-27T00:02:11.448Z,29.93
2019-02-27T00:04:47.058Z,32.77
2019-02-27T00:07:15.747Z,33.67
2019-02-27T00:09:44.592Z,34.07
2019-02-27T00:12:20.028Z,30.80
2019-02-27T00:15:19.228Z,33.40
2019-02-27T00:17:54.594Z,32.47
2019-02-27T00:20:23.358Z,33.13
2019-02-27T00:22:52.047Z,35.07
2019-02-27T00:25:28.106Z,33.00
2019-02-27T00:27:56.900Z,29.63
2019-02-27T00:30:32.653Z,30.53
2019-02-27T00:33:01.229Z,31.20
2019-02-27T00:35:30.015Z,32.53
2019-02-27T00:38:05.716Z,32.90
2019-02-27T00:40:38.523Z,34.47
2019-02-27T00:43:04.680Z,34.90
2019-02-27T00:45:40.112Z,32.77
2019-02-27T00:48:09.334Z,34.37
2019-02-27T00:50:39.203Z,32.90
2019-02-27T00:53:15.310Z,35.03
2019-02-27T00:55:43.974Z,30.13
2019-02-27T00:58:19.327Z,33.10
2019-02-27T01:00:55.081Z,34.40
2019-02-27T01:06:32.593Z,36.60
2019-02-27T01:09:01.109Z,34.63
2019-02-27T01:11:36.528Z,34.13
2019-02-27T01:14:05.310Z,32.77
2019-02-27T01:16:33.996Z,33.87
2019-02-27T01:19:09.855Z,35.13
2019-02-27T01:21:38.449Z,33.17
2019-02-27T01:24:15.049Z,33.33
2019-02-27T01:26:44.237Z,34.23
2019-02-27T01:29:13.166Z,32.43
2019-02-27T01:31:48.244Z,31.80
2019-02-27T01:34:17.023Z,32.27
2019-02-27T01:36:54.918Z,33.43
2019-02-27T01:39:22.520Z,30.00
2019-02-27T01:41:51.074Z,35.30
2019-02-27T01:44:26.251Z,31.67
2019-02-27T01:46:54.997Z,32.23
2019-02-27T01:49:30.450Z,31.17
2019-02-27T01:51:59.153Z,34.30
2019-02-27T01:54:29.327Z,30.70
2019-02-27T01:57:05.243Z,31.07
2019-02-27T01:59:33.994Z,30.07
2019-02-27T02:02:08.831Z,30.87
2019-02-27T02:04:57.075Z,32.37
2019-02-27T02:07:32.041Z,31.80
2019-02-27T02:10:00.549Z,32.00
2019-02-27T02:12:29.479Z,34.27
2019-02-27T02:15:11.073Z,31.87
2019-02-27T02:18:21.245Z,29.93
2019-02-27T02:21:00.875Z,31.03
2019-02-27T02:23:36.116Z,33.00
2019-02-27T02:26:07.981Z,35.23
2019-02-27T02:29:06.970Z,30.83
2019-02-27T02:31:50.572Z,32.90
2019-02-27T02:34:53.298Z,34.67
2019-02-27T02:37:48.603Z,36.17
2019-02-27T02:40:32.484Z,30.63
2019-02-27T02:43:13.162Z,30.57
2019-02-27T02:45:51.436Z,31.73
2019-02-27T02:48:46.026Z,31.73
2019-02-27T02:51:39.500Z,34.90
2019-02-27T02:54:20.264Z,35.37
2019-02-27T02:57:17.515Z,36.63
2019-02-27T02:59:52.452Z,32.37
2019-02-27T03:02:37.541Z,34.17
2019-02-27T03:05:29.315Z,37.03
2019-02-27T03:08:19.872Z,34.93
2019-02-27T03:10:47.609Z,33.30
2019-02-27T03:13:26.229Z,33.60
2019-02-27T03:16:18.775Z,32.07
2019-02-27T03:19:20.594Z,35.00
2019-02-27T03:22:04.775Z,33.37
2019-02-27T03:25:04.461Z,32.47
2019-02-27T03:28:04.505Z,33.67
2019-02-27T03:30:45.101Z,32.83
2019-02-27T03:33:26.702Z,34.17
2019-02-27T03:36:07.107Z,37.87
2019-02-27T03:39:03.683Z,33.97
2019-02-27T03:41:51.233Z,36.40
2019-02-27T03:44:24.614Z,34.57
2019-02-27T03:47:16.734Z,34.90
2019-02-27T03:49:54.287Z,36.60
2019-02-27T03:52:44.734Z,37.17
2019-02-27T03:55:49.810Z,33.27
2019-02-27T03:58:35.022Z,32.83
2019-02-27T04:01:30.238Z,36.17
2019-02-27T04:04:11.643Z,41.27
2019-02-27T04:07:14.733Z,34.97
2019-02-27T04:09:54.888Z,35.10
2019-02-27T04:12:20.409Z,33.80
2019-02-27T04:14:55.236Z,34.37
2019-02-27T04:17:27.618Z,36.20
2019-02-27T04:19:56.899Z,33.50
2019-02-27T04:22:36.221Z,34.63
2019-02-27T04:25:03.013Z,35.37
2019-02-27T04:27:39.262Z,34.67
2019-02-27T04:30:14.752Z,34.67
2019-02-27T04:32:39.806Z,32.83
2019-02-27T04:35:15.250Z,33.97
2019-02-27T04:37:43.785Z,36.50
2019-02-27T04:40:19.379Z,35.50
2019-02-27T04:42:47.912Z,36.17
2019-02-27T04:45:16.952Z,33.03
2019-02-27T04:47:51.680Z,34.73
2019-02-27T04:50:20.252Z,35.47
2019-02-27T04:52:58.039Z,36.30
2019-02-27T04:55:26.136Z,32.43
2019-02-27T04:57:54.932Z,33.30
2019-02-27T05:00:30.742Z,37.63
2019-02-27T05:02:59.290Z,39.70
2019-02-27T05:05:35.120Z,37.97
2019-02-27T05:08:26.910Z,33.83
2019-02-27T05:11:02.250Z,38.40
2019-02-27T05:13:31.081Z,35.70
2019-02-27T05:15:59.685Z,36.80
2019-02-27T05:18:35.213Z,34.27
2019-02-27T05:21:03.901Z,36.03
2019-02-27T05:23:39.756Z,38.47
2019-02-27T05:26:08.443Z,38.30
2019-02-27T05:28:37.140Z,38.60
2019-02-27T05:31:12.304Z,35.57
2019-02-27T05:33:40.956Z,36.77
2019-02-27T05:36:16.599Z,36.93
2019-02-27T05:38:45.803Z,42.03
2019-02-27T05:41:14.331Z,42.60
2019-02-27T05:43:50.135Z,35.53
2019-02-27T05:46:18.821Z,42.53
2019-02-27T05:48:54.174Z,41.87
2019-02-27T05:51:22.715Z,36.80
2019-02-27T05:53:51.230Z,36.93
2019-02-27T05:56:26.391Z,38.63
2019-02-27T05:58:56.265Z,39.43
2019-02-27T06:01:33.061Z,45.07
2019-02-27T06:04:01.659Z,48.63
2019-02-27T06:06:30.229Z,38.70
2019-02-27T06:09:13.471Z,40.50
2019-02-27T06:11:48.530Z,39.87
2019-02-27T06:14:23.528Z,40.17
2019-02-27T06:16:52.214Z,42.10
2019-02-27T06:19:20.805Z,41.40
2019-02-27T06:21:56.349Z,39.47
2019-02-27T06:24:25.539Z,53.90
2019-02-27T06:27:01.074Z,41.43
2019-02-27T06:29:29.730Z,36.40
2019-02-27T06:31:58.268Z,36.20
2019-02-27T06:34:34.069Z,38.33
2019-02-27T06:37:02.705Z,40.63
2019-02-27T06:39:37.912Z,42.93
2019-02-27T06:42:06.603Z,40.20
2019-02-27T06:44:36.611Z,36.47
2019-02-27T06:47:12.110Z,39.10
2019-02-27T06:49:40.717Z,40.60
2019-02-27T06:52:16.126Z,39.23
2019-02-27T06:54:44.639Z,44.43
2019-02-27T06:57:13.435Z,40.37
2019-02-27T06:59:48.849Z,38.03
2019-02-27T07:02:19.115Z,38.17
2019-02-27T07:04:54.607Z,37.33
2019-02-27T07:07:23.502Z,36.33
2019-02-27T07:10:12.070Z,45.30
2019-02-27T07:12:40.734Z,39.93
2019-02-27T07:15:24.686Z,42.43
2019-02-27T07:17:53.470Z,43.47
2019-02-27T07:20:24.525Z,41.47
2019-02-27T07:22:59.367Z,39.43
2019-02-27T07:25:28.644Z,40.50
2019-02-27T07:28:08.430Z,40.23
2019-02-27T07:30:33.998Z,34.00
2019-02-27T07:33:03.773Z,34.67
2019-02-27T07:35:40.003Z,37.97
2019-02-27T07:38:08.585Z,33.80
2019-02-27T07:40:44.533Z,37.27
2019-02-27T07:43:13.414Z,34.50
2019-02-27T07:45:42.740Z,35.83
2019-02-27T07:48:19.156Z,35.60
2019-02-27T07:50:49.134Z,33.53
2019-02-27T07:53:25.645Z,34.47
2019-02-27T07:55:54.873Z,35.10
2019-02-27T07:58:23.414Z,31.70
2019-02-27T08:00:59.533Z,34.43
2019-02-27T08:03:28.047Z,34.63
2019-02-27T08:05:56.586Z,34.27
2019-02-27T08:08:31.818Z,33.13
2019-02-27T08:11:20.095Z,32.80
2019-02-27T08:13:55.883Z,33.17
2019-02-27T08:16:24.502Z,33.87
2019-02-27T08:18:53.271Z,40.20
2019-02-27T08:21:30.238Z,37.03
2019-02-27T08:23:58.753Z,32.47
2019-02-27T08:26:36.449Z,33.90
2019-02-27T08:29:03.913Z,34.08
2019-02-27T08:31:32.478Z,30.10
2019-02-27T08:34:08.265Z,30.70
2019-02-27T08:36:36.935Z,30.50
2019-02-27T08:39:12.541Z,30.87
2019-02-27T08:41:41.174Z,35.83
2019-02-27T08:44:12.284Z,29.20
2019-02-27T08:46:48.274Z,36.93
2019-02-27T08:49:17.189Z,27.93
2019-02-27T08:51:52.109Z,29.80
2019-02-27T08:54:20.904Z,27.10
2019-02-27T08:56:49.776Z,28.43
2019-02-27T08:59:31.066Z,29.93
2019-02-27T09:01:59.660Z,28.23
2019-02-27T09:04:35.085Z,28.67
2019-02-27T09:07:03.977Z,29.03
2019-02-27T09:09:55.160Z,28.53
2019-02-27T09:12:24.119Z,29.57
2019-02-27T09:14:52.871Z,28.63
2019-02-27T09:17:28.430Z,28.60
2019-02-27T09:19:57.424Z,28.97
2019-02-27T09:22:33.843Z,28.43
2019-02-27T09:25:16.227Z,29.10
2019-02-27T09:27:52.480Z,31.10
2019-02-27T09:30:22.482Z,29.67
2019-02-27T09:32:51.465Z,29.80
2019-02-27T09:35:27.107Z,30.52
2019-02-27T09:37:55.755Z,30.40
2019-02-27T09:40:38.539Z,31.07
2019-02-27T09:43:06.177Z,31.48
2019-02-27T09:45:35.533Z,32.13
2019-02-27T09:48:11.141Z,31.57
2019-02-27T09:50:49.107Z,32.55
2019-02-27T09:53:18.033Z,31.55
2019-02-27T09:55:46.761Z,33.08
2019-02-27T09:58:22.758Z,31.62
2019-02-27T10:00:59.063Z,32.53
2019-02-27T10:03:32.860Z,35.80
2019-02-27T10:06:01.554Z,32.78
2019-02-27T10:08:30.333Z,32.50
2019-02-27T10:11:12.534Z,32.05
2019-02-27T10:13:47.299Z,33.38
2019-02-27T10:16:22.866Z,33.00
2019-02-27T10:18:54.797Z,32.90
2019-02-27T10:21:21.911Z,34.08
2019-02-27T10:23:57.459Z,34.00
2019-02-27T10:26:26.395Z,35.68
2019-02-27T10:29:01.426Z,33.88
2019-02-27T10:31:30.078Z,34.53
2019-02-27T10:34:00.396Z,34.38
2019-02-27T10:36:39.219Z,34.95
2019-02-27T10:39:06.821Z,34.38
2019-02-27T10:41:41.641Z,32.65
2019-02-27T10:44:10.511Z,34.27
2019-02-27T10:46:39.196Z,33.63
2019-02-27T10:49:14.648Z,33.13
2019-02-27T10:51:43.756Z,32.45
2019-02-27T10:54:19.391Z,31.07
2019-02-27T10:56:47.945Z,31.70
2019-02-27T10:59:19.649Z,31.27
2019-02-27T11:01:53.847Z,33.60
2019-02-27T11:04:22.733Z,31.70
2019-02-27T11:06:57.697Z,30.62
2019-02-27T11:09:27.396Z,32.53
2019-02-27T11:12:09.864Z,30.08
2019-02-27T11:14:45.420Z,34.20
2019-02-27T11:17:20.335Z,28.57
2019-02-27T11:19:48.861Z,30.30
2019-02-27T11:22:17.357Z,27.07
2019-02-27T11:24:52.590Z,31.30
2019-02-27T11:27:21.207Z,30.13
2019-02-27T11:29:59.594Z,22.27
2019-02-27T11:32:26.332Z,26.20
2019-02-27T11:34:54.949Z,166.13
2019-02-27T11:37:29.989Z,22.03
2019-02-27T11:39:58.490Z,21.97
2019-02-27T11:42:33.840Z,26.70
2019-02-27T11:45:02.388Z,21.73
2019-02-27T11:47:31.039Z,24.10
2019-02-27T11:50:06.701Z,26.43
2019-02-27T11:52:35.301Z,25.37
2019-02-27T11:55:16.637Z,21.83
2019-02-27T11:57:45.251Z,22.47
2019-02-27T12:00:21.028Z,21.67
2019-02-27T12:02:54.996Z,21.60
2019-02-27T12:05:23.643Z,33.93
2019-02-27T12:07:58.775Z,20.10
2019-02-27T12:10:28.939Z,17.77
2019-02-27T12:13:16.776Z,17.60
2019-02-27T12:15:45.566Z,19.93
2019-02-27T12:18:14.230Z,17.07
2019-02-27T12:20:53.214Z,18.77
2019-02-27T12:23:19.416Z,42.83
2019-02-27T12:25:55.572Z,22.20
2019-02-27T12:28:24.888Z,18.53
2019-02-27T12:30:53.419Z,50.13
2019-02-27T12:33:29.462Z,21.33
2019-02-27T12:35:58.620Z,20.27
2019-02-27T12:38:34.419Z,20.43
2019-02-27T12:41:03.048Z,18.43
2019-02-27T12:43:38.602Z,16.57
2019-02-27T12:46:07.295Z,16.67
2019-02-27T12:48:36.277Z,14.13
2019-02-27T12:51:11.563Z,23.60
2019-02-27T12:53:40.111Z,14.03
2019-02-27T12:56:15.558Z,14.47
2019-02-27T12:58:44.231Z,15.17
2019-02-27T13:01:16.165Z,18.50
2019-02-27T13:03:50.628Z,14.07
2019-02-27T13:06:19.318Z,15.43
2019-02-27T13:08:55.941Z,14.10
2019-02-27T13:11:24.817Z,13.87
2019-02-27T13:14:13.673Z,12.73
2019-02-27T13:16:42.516Z,12.87
2019-02-27T13:19:11.217Z,14.40
2019-02-27T13:21:46.948Z,11.97
2019-02-27T13:24:16.045Z,9.33
2019-02-27T13:26:51.803Z,10.53
2019-02-27T13:29:21.527Z,5.93
2019-02-27T13:31:51.503Z,4.67
2019-02-27T13:34:27.291Z,7.53
2019-02-27T13:36:55.886Z,8.40
2019-02-27T13:39:31.131Z,9.37
2019-02-27T13:41:59.706Z,5.83
2019-02-27T13:44:28.548Z,6.27
2019-02-27T13:47:03.516Z,6.63
2019-02-27T13:49:32.104Z,6.37
2019-02-27T13:52:10.247Z,4.37
2019-02-27T13:54:38.210Z,6.80
2019-02-27T13:57:07.181Z,5.97
2019-02-27T13:59:44.903Z,7.37
2019-02-27T14:02:13.353Z,6.23
2019-02-27T14:04:49.530Z,5.80
2019-02-27T14:07:23.411Z,8.03
2019-02-27T14:09:48.974Z,4.60
2019-02-27T14:12:24.032Z,4.63
2019-02-27T14:15:13.039Z,4.23
2019-02-27T14:17:48.689Z,3.60
2019-02-27T14:20:19.250Z,4.47
2019-02-27T14:22:47.825Z,5.10
2019-02-27T14:25:28.005Z,5.47
2019-02-27T14:27:56.130Z,4.83
2019-02-27T14:30:36.455Z,10.53
2019-02-27T14:33:05.283Z,5.17
2019-02-27T14:35:36.334Z,3.63
2019-02-27T14:38:11.832Z,5.57
2019-02-27T14:40:41.256Z,4.97
2019-02-27T14:43:16.730Z,4.73
2019-02-27T14:45:45.326Z,8.73
2019-02-27T14:48:14.004Z,8.97
2019-02-27T14:50:49.264Z,7.13
2019-02-27T14:53:19.704Z,5.67
2019-02-27T14:55:54.854Z,7.00
2019-02-27T14:58:24.420Z,7.30
2019-02-27T15:00:54.855Z,6.90
2019-02-27T15:03:30.767Z,5.90
2019-02-27T15:05:59.303Z,6.23
2019-02-27T15:08:34.253Z,8.47
2019-02-27T15:11:03.094Z,6.80
2019-02-27T15:13:32.207Z,7.97
2019-02-27T15:16:15.354Z,7.27
2019-02-27T15:18:55.057Z,14.30
2019-02-27T15:21:28.160Z,10.37
2019-02-27T15:24:01.060Z,8.13
2019-02-27T15:26:27.369Z,8.87
2019-02-27T15:29:03.119Z,7.60
2019-02-27T15:31:32.428Z,5.90
2019-02-27T15:34:11.862Z,6.17
2019-02-27T15:36:37.690Z,6.53
2019-02-27T15:39:06.762Z,7.10
2019-02-27T15:41:42.569Z,50.20
2019-02-27T15:44:11.205Z,10.60
2019-02-27T15:46:46.158Z,7.60
2019-02-27T15:49:15.106Z,5.83
2019-02-27T15:51:44.474Z,7.03
2019-02-27T15:54:23.931Z,8.50
2019-02-27T15:56:49.742Z,11.67
2019-02-27T15:59:24.961Z,10.70
2019-02-27T16:01:53.571Z,16.23
2019-02-27T16:04:22.146Z,9.87
2019-02-27T16:06:57.474Z,7.43
2019-02-27T16:09:26.208Z,8.00
2019-02-27T16:12:01.563Z,8.77
2019-02-27T16:14:30.152Z,6.77
2019-02-27T16:17:18.683Z,7.73
2019-02-27T16:19:47.190Z,21.33
2019-02-27T16:22:15.746Z,11.13
2019-02-27T16:24:51.265Z,9.33
2019-02-27T16:27:19.796Z,13.23
2019-02-27T16:29:56.727Z,22.33
2019-02-27T16:32:25.379Z,9.73
2019-02-27T16:34:54.027Z,8.70
2019-02-27T16:37:31.512Z,8.33
2019-02-27T16:40:00.074Z,6.63
2019-02-27T16:42:36.408Z,7.67
2019-02-27T16:45:09.500Z,8.53
2019-02-27T16:47:38.056Z,21.37
2019-02-27T16:50:24.349Z,14.10
2019-02-27T16:52:49.719Z,9.93
2019-02-27T16:55:35.619Z,13.67
2019-02-27T16:58:03.341Z,10.30
2019-02-27T17:00:34.467Z,9.53
2019-02-27T17:03:12.784Z,11.73
2019-02-27T17:05:43.028Z,9.53
2019-02-27T17:08:17.445Z,46.70
2019-02-27T17:10:46.025Z,19.03
2019-02-27T17:13:21.036Z,24.83
2019-02-27T17:16:10.789Z,26.87
2019-02-27T17:18:46.395Z,17.23
2019-02-27T17:21:16.477Z,16.63
2019-02-27T17:23:46.687Z,26.33
2019-02-27T17:26:21.496Z,19.10
2019-02-27T17:28:51.550Z,15.53
2019-02-27T17:31:27.442Z,13.00
2019-02-27T17:33:56.191Z,12.40
2019-02-27T17:36:25.023Z,13.03
2019-02-27T17:39:00.986Z,12.27
2019-02-27T17:41:29.565Z,12.93
2019-02-27T17:44:05.382Z,11.50
2019-02-27T17:46:34.205Z,9.63
2019-02-27T17:49:02.895Z,10.00
2019-02-27T17:51:39.577Z,11.97
2019-02-27T17:54:08.973Z,12.57
2019-02-27T17:56:44.308Z,15.97
2019-02-27T17:59:13.910Z,12.73
2019-02-27T18:01:42.630Z,12.13
2019-02-27T18:04:18.401Z,11.93
2019-02-27T18:06:46.969Z,19.93
2019-02-27T18:09:23.448Z,12.77
2019-02-27T18:11:53.242Z,15.27
2019-02-27T18:14:21.961Z,13.97
2019-02-27T18:17:04.013Z,11.27
2019-02-27T18:19:39.077Z,15.23
2019-02-27T18:22:14.809Z,14.43
2019-02-27T18:24:43.377Z,12.50
2019-02-27T18:27:11.898Z,13.63
2019-02-27T18:29:48.032Z,16.23
2019-02-27T18:32:16.643Z,21.03
2019-02-27T18:34:54.677Z,17.07
2019-02-27T18:37:22.694Z,18.40
2019-02-27T18:39:51.478Z,17.50
2019-02-27T18:42:26.376Z,13.97
2019-02-27T18:44:54.924Z,15.73
2019-02-27T18:47:32.108Z,12.43
2019-02-27T18:50:00.985Z,14.80
2019-02-27T18:52:29.863Z,11.57
2019-02-27T18:55:05.311Z,16.37
2019-02-27T18:57:34.102Z,17.80
2019-02-27T19:00:09.750Z,18.07
2019-02-27T19:02:38.539Z,15.43
2019-02-27T19:05:08.562Z,15.93
2019-02-27T19:07:43.438Z,18.90
2019-02-27T19:10:15.068Z,18.57
2019-02-27T19:12:50.422Z,20.90
2019-02-27T19:15:24.292Z,17.50
2019-02-27T19:18:13.437Z,17.93
2019-02-27T19:20:44.134Z,16.60
2019-02-27T19:23:19.579Z,15.87
2019-02-27T19:25:48.633Z,13.73
2019-02-27T19:28:24.825Z,18.07
2019-02-27T19:30:54.609Z,13.73
2019-02-27T19:33:23.143Z,12.40
2019-02-27T19:35:58.452Z,14.53
2019-02-27T19:38:26.953Z,14.60
2019-02-27T19:41:04.109Z,13.77
2019-02-27T19:43:32.546Z,13.17
2019-02-27T19:46:01.075Z,11.37
2019-02-27T19:48:36.397Z,11.67
2019-02-27T19:51:05.039Z,12.67
2019-02-27T19:53:42.132Z,27.07
2019-02-27T19:56:10.636Z,38.63
2019-02-27T19:58:39.664Z,24.43
2019-02-27T20:01:15.213Z,22.00
2019-02-27T20:03:44.096Z,15.07
2019-02-27T20:06:19.748Z,18.23
2019-02-27T20:08:48.634Z,14.63
2019-02-27T20:11:17.335Z,11.40
2019-02-27T20:13:53.996Z,13.67
2019-02-27T20:16:22.752Z,12.70
2019-02-27T20:19:05.195Z,10.80
2019-02-27T20:21:33.792Z,13.93
2019-02-27T20:24:14.214Z,12.30
2019-02-27T20:26:44.738Z,10.57
2019-02-27T20:29:12.330Z,14.10
2019-02-27T20:31:48.234Z,14.40
2019-02-27T20:34:17.076Z,12.10
2019-02-27T20:36:45.785Z,10.90
2019-02-27T20:39:23.239Z,10.20
2019-02-27T20:41:51.328Z,11.83
2019-02-27T20:44:26.754Z,11.93
2019-02-27T20:46:55.459Z,12.10
2019-02-27T20:49:24.367Z,12.90
2019-02-27T20:51:59.299Z,15.87
2019-02-27T20:54:27.885Z,13.70
2019-02-27T20:57:02.715Z,9.23
2019-02-27T20:59:31.300Z,11.73
2019-02-27T21:01:59.878Z,12.30
2019-02-27T21:04:35.995Z,9.50
2019-02-27T21:07:04.510Z,10.00
2019-02-27T21:09:42.285Z,9.80
2019-02-27T21:12:10.828Z,10.33
2019-02-27T21:14:39.496Z,8.50
2019-02-27T21:17:18.592Z,10.77
2019-02-27T21:19:52.487Z,9.93
2019-02-27T21:22:35.243Z,8.10
2019-02-27T21:25:04.656Z,8.73
2019-02-27T21:27:39.787Z,7.03
2019-02-27T21:30:22.598Z,9.40
2019-02-27T21:32:58.654Z,9.33
2019-02-27T21:35:29.769Z,7.83
2019-02-27T21:37:57.426Z,14.67
2019-02-27T21:40:35.882Z,10.23
2019-02-27T21:43:03.434Z,8.43
2019-02-27T21:45:39.202Z,12.63
2019-02-27T21:48:07.716Z,10.97
2019-02-27T21:50:45.206Z,13.40
2019-02-27T21:53:13.845Z,9.20
2019-02-27T21:55:49.646Z,10.00
2019-02-27T21:58:20.540Z,8.27
2019-02-27T22:00:49.280Z,9.93
2019-02-27T22:03:25.296Z,7.93
2019-02-27T22:05:54.215Z,26.03
2019-02-27T22:08:29.624Z,12.33
2019-02-27T22:10:58.515Z,9.43
2019-02-27T22:13:29.654Z,11.37
2019-02-27T22:16:04.494Z,11.77
2019-02-27T22:18:33.181Z,10.80
2019-02-27T22:21:14.771Z,13.43
2019-02-27T22:23:50.157Z,9.53
2019-02-27T22:26:25.861Z,11.53
2019-02-27T22:28:55.163Z,11.33
2019-02-27T22:31:24.118Z,12.87
2019-02-27T22:33:59.639Z,9.67
2019-02-27T22:36:28.316Z,11.67
2019-02-27T22:39:04.145Z,10.00
2019-02-27T22:41:33.038Z,9.00
2019-02-27T22:44:02.048Z,10.60
2019-02-27T22:46:37.882Z,9.10
2019-02-27T22:49:06.778Z,9.37
2019-02-27T22:51:45.180Z,8.00
2019-02-27T22:54:12.032Z,9.23
2019-02-27T22:56:40.923Z,11.40
2019-02-27T22:59:16.838Z,9.63
2019-02-27T23:01:49.347Z,8.77
2019-02-27T23:04:22.857Z,10.20
2019-02-27T23:06:51.748Z,8.97
2019-02-27T23:09:27.401Z,10.53
2019-02-27T23:11:56.208Z,10.30
2019-02-27T23:14:25.284Z,9.67
2019-02-27T23:17:01.212Z,9.40
2019-02-27T23:19:30.032Z,10.87
2019-02-27T23:22:11.617Z,8.57
2019-02-27T23:25:05.761Z,9.47
2019-02-27T23:27:41.146Z,8.67
2019-02-27T23:30:15.916Z,9.70
2019-02-27T23:32:42.014Z,10.20
2019-02-27T23:35:18.266Z,10.60
2019-02-27T23:37:47.154Z,9.87
2019-02-27T23:40:23.420Z,8.20
2019-02-27T23:42:52.312Z,8.13
2019-02-27T23:45:21.002Z,7.70
2019-02-27T23:47:56.443Z,9.53
2019-02-27T23:50:25.243Z,10.20
2019-02-27T23:53:00.984Z,10.63
2019-02-27T23:55:29.732Z,7.60
2019-02-27T23:57:58.566Z,9.60
